sensor_id;sensor_type;location;lat;lon;timestamp;temperature;humidity
69731;SHT31;56996;48.138;11.538;2023-09-30T00:01:23;18.70;61.38
69731;SHT31;56996;48.138;11.538;2023-09-30T00:03:49;18.66;61.53
69731;SHT31;56996;48.138;11.538;2023-09-30T00:06:17;18.61;61.46
69731;SHT31;56996;48.138;11.538;2023-09-30T00:08:44;18.60;61.54
69731;SHT31;56996;48.138;11.538;2023-09-30T00:11:14;18.58;61.76
69731;SHT31;56996;48.138;11.538;2023-09-30T00:13:43;18.54;61.68
69731;SHT31;56996;48.138;11.538;2023-09-30T00:16:10;18.53;61.84
69731;SHT31;56996;48.138;11.538;2023-09-30T00:18:37;18.51;61.92
69731;SHT31;56996;48.138;11.538;2023-09-30T00:21:04;18.49;61.93
69731;SHT31;56996;48.138;11.538;2023-09-30T00:23:32;18.48;62.12
69731;SHT31;56996;48.138;11.538;2023-09-30T00:25:58;18.44;62.18
69731;SHT31;56996;48.138;11.538;2023-09-30T00:28:26;18.41;62.30
69731;SHT31;56996;48.138;11.538;2023-09-30T00:30:53;18.39;62.41
69731;SHT31;56996;48.138;11.538;2023-09-30T00:33:20;18.37;62.49
69731;SHT31;56996;48.138;11.538;2023-09-30T00:35:47;18.36;62.58
69731;SHT31;56996;48.138;11.538;2023-09-30T00:38:14;18.34;62.76
69731;SHT31;56996;48.138;11.538;2023-09-30T00:40:48;18.29;62.89
69731;SHT31;56996;48.138;11.538;2023-09-30T00:43:19;18.28;62.91
69731;SHT31;56996;48.138;11.538;2023-09-30T00:45:48;18.26;63.00
69731;SHT31;56996;48.138;11.538;2023-09-30T00:48:18;18.22;63.18
69731;SHT31;56996;48.138;11.538;2023-09-30T00:50:45;18.18;63.30
69731;SHT31;56996;48.138;11.538;2023-09-30T00:53:12;18.16;63.42
69731;SHT31;56996;48.138;11.538;2023-09-30T00:55:39;18.12;63.54
69731;SHT31;56996;48.138;11.538;2023-09-30T00:58:07;18.10;63.61
69731;SHT31;56996;48.138;11.538;2023-09-30T01:00:34;18.08;63.72
69731;SHT31;56996;48.138;11.538;2023-09-30T01:03:03;18.06;63.89
69731;SHT31;56996;48.138;11.538;2023-09-30T01:05:31;18.03;64.01
69731;SHT31;56996;48.138;11.538;2023-09-30T01:07:58;18.01;64.09
69731;SHT31;56996;48.138;11.538;2023-09-30T01:10:29;18.01;64.28
69731;SHT31;56996;48.138;11.538;2023-09-30T01:12:56;18.00;64.40
69731;SHT31;56996;48.138;11.538;2023-09-30T01:15:23;17.99;64.43
69731;SHT31;56996;48.138;11.538;2023-09-30T01:17:50;17.99;64.59
69731;SHT31;56996;48.138;11.538;2023-09-30T01:20:17;18.00;64.57
69731;SHT31;56996;48.138;11.538;2023-09-30T01:22:45;18.02;64.61
69731;SHT31;56996;48.138;11.538;2023-09-30T01:25:13;18.06;64.67
69731;SHT31;56996;48.138;11.538;2023-09-30T01:27:39;18.08;64.69
69731;SHT31;56996;48.138;11.538;2023-09-30T01:30:07;18.08;64.77
69731;SHT31;56996;48.138;11.538;2023-09-30T01:32:37;18.07;64.85
69731;SHT31;56996;48.138;11.538;2023-09-30T01:35:04;18.07;64.90
69731;SHT31;56996;48.138;11.538;2023-09-30T01:37:32;18.05;65.02
69731;SHT31;56996;48.138;11.538;2023-09-30T01:39:59;18.02;65.08
69731;SHT31;56996;48.138;11.538;2023-09-30T01:42:26;17.99;65.16
69731;SHT31;56996;48.138;11.538;2023-09-30T01:44:53;17.97;65.18
69731;SHT31;56996;48.138;11.538;2023-09-30T01:47:21;17.97;65.23
69731;SHT31;56996;48.138;11.538;2023-09-30T01:49:48;17.95;65.32
69731;SHT31;56996;48.138;11.538;2023-09-30T01:52:14;17.94;65.46
69731;SHT31;56996;48.138;11.538;2023-09-30T01:54:41;17.90;65.58
69731;SHT31;56996;48.138;11.538;2023-09-30T01:57:08;17.87;65.63
69731;SHT31;56996;48.138;11.538;2023-09-30T01:59:35;17.85;65.67
69731;SHT31;56996;48.138;11.538;2023-09-30T02:02:02;17.85;65.77
69731;SHT31;56996;48.138;11.538;2023-09-30T02:04:29;17.84;65.86
69731;SHT31;56996;48.138;11.538;2023-09-30T02:06:57;17.81;65.94
69731;SHT31;56996;48.138;11.538;2023-09-30T02:09:25;17.78;66.02
69731;SHT31;56996;48.138;11.538;2023-09-30T02:11:52;17.77;66.20
69731;SHT31;56996;48.138;11.538;2023-09-30T02:14:19;17.75;66.26
69731;SHT31;56996;48.138;11.538;2023-09-30T02:16:45;17.72;66.33
69731;SHT31;56996;48.138;11.538;2023-09-30T02:19:13;17.67;66.47
69731;SHT31;56996;48.138;11.538;2023-09-30T02:21:39;17.64;66.57
69731;SHT31;56996;48.138;11.538;2023-09-30T02:24:06;17.66;66.58
69731;SHT31;56996;48.138;11.538;2023-09-30T02:26:34;17.67;66.55
69731;SHT31;56996;48.138;11.538;2023-09-30T02:29:00;17.68;66.55
69731;SHT31;56996;48.138;11.538;2023-09-30T02:31:27;17.70;66.59
69731;SHT31;56996;48.138;11.538;2023-09-30T02:33:54;17.70;66.61
69731;SHT31;56996;48.138;11.538;2023-09-30T02:36:22;17.69;66.67
69731;SHT31;56996;48.138;11.538;2023-09-30T02:38:49;17.70;66.72
69731;SHT31;56996;48.138;11.538;2023-09-30T02:41:15;17.72;66.76
69731;SHT31;56996;48.138;11.538;2023-09-30T02:43:42;17.73;66.77
69731;SHT31;56996;48.138;11.538;2023-09-30T02:46:09;17.73;66.80
69731;SHT31;56996;48.138;11.538;2023-09-30T02:48:36;17.73;66.81
69731;SHT31;56996;48.138;11.538;2023-09-30T02:51:03;17.72;66.90
69731;SHT31;56996;48.138;11.538;2023-09-30T02:53:30;17.71;66.98
69731;SHT31;56996;48.138;11.538;2023-09-30T02:55:57;17.68;67.02
69731;SHT31;56996;48.138;11.538;2023-09-30T02:58:26;17.67;67.09
69731;SHT31;56996;48.138;11.538;2023-09-30T03:00:55;17.65;67.20
69731;SHT31;56996;48.138;11.538;2023-09-30T03:03:23;17.62;67.29
69731;SHT31;56996;48.138;11.538;2023-09-30T03:05:52;17.59;67.37
69731;SHT31;56996;48.138;11.538;2023-09-30T03:08:21;17.55;67.48
69731;SHT31;56996;48.138;11.538;2023-09-30T03:10:48;17.52;67.48
69731;SHT31;56996;48.138;11.538;2023-09-30T03:13:15;17.50;67.49
69731;SHT31;56996;48.138;11.538;2023-09-30T03:15:42;17.44;67.58
69731;SHT31;56996;48.138;11.538;2023-09-30T03:18:08;17.41;67.66
69731;SHT31;56996;48.138;11.538;2023-09-30T03:20:35;17.39;67.64
69731;SHT31;56996;48.138;11.538;2023-09-30T03:23:06;17.38;67.74
69731;SHT31;56996;48.138;11.538;2023-09-30T03:25:35;17.36;67.68
69731;SHT31;56996;48.138;11.538;2023-09-30T03:28:02;17.37;67.60
69731;SHT31;56996;48.138;11.538;2023-09-30T03:30:32;17.37;67.64
69731;SHT31;56996;48.138;11.538;2023-09-30T03:32:59;17.37;67.69
69731;SHT31;56996;48.138;11.538;2023-09-30T03:35:26;17.36;67.74
69731;SHT31;56996;48.138;11.538;2023-09-30T03:37:53;17.36;67.77
69731;SHT31;56996;48.138;11.538;2023-09-30T03:40:20;17.37;67.82
69731;SHT31;56996;48.138;11.538;2023-09-30T03:42:54;17.35;67.89
69731;SHT31;56996;48.138;11.538;2023-09-30T03:45:21;17.34;68.08
69731;SHT31;56996;48.138;11.538;2023-09-30T03:47:48;17.33;68.10
69731;SHT31;56996;48.138;11.538;2023-09-30T03:50:16;17.34;68.09
69731;SHT31;56996;48.138;11.538;2023-09-30T03:52:43;17.34;68.08
69731;SHT31;56996;48.138;11.538;2023-09-30T03:55:14;17.35;68.08
69731;SHT31;56996;48.138;11.538;2023-09-30T03:57:43;17.35;68.10
69731;SHT31;56996;48.138;11.538;2023-09-30T04:00:15;17.35;68.18
69731;SHT31;56996;48.138;11.538;2023-09-30T04:02:48;17.36;68.17
69731;SHT31;56996;48.138;11.538;2023-09-30T04:05:18;17.37;68.17
69731;SHT31;56996;48.138;11.538;2023-09-30T04:07:46;17.33;68.20
69731;SHT31;56996;48.138;11.538;2023-09-30T04:10:13;17.36;68.21
69731;SHT31;56996;48.138;11.538;2023-09-30T04:12:40;17.37;68.12
69731;SHT31;56996;48.138;11.538;2023-09-30T04:15:07;17.36;68.09
69731;SHT31;56996;48.138;11.538;2023-09-30T04:17:38;17.38;68.10
69731;SHT31;56996;48.138;11.538;2023-09-30T04:20:06;17.39;68.09
69731;SHT31;56996;48.138;11.538;2023-09-30T04:22:36;17.40;68.03
69731;SHT31;56996;48.138;11.538;2023-09-30T04:25:04;17.40;68.08
69731;SHT31;56996;48.138;11.538;2023-09-30T04:27:35;17.42;68.03
69731;SHT31;56996;48.138;11.538;2023-09-30T04:30:02;17.44;68.00
69731;SHT31;56996;48.138;11.538;2023-09-30T04:32:36;17.45;68.00
69731;SHT31;56996;48.138;11.538;2023-09-30T04:35:04;17.46;68.06
69731;SHT31;56996;48.138;11.538;2023-09-30T04:37:31;17.47;67.98
69731;SHT31;56996;48.138;11.538;2023-09-30T04:39:58;17.45;68.02
69731;SHT31;56996;48.138;11.538;2023-09-30T04:42:25;17.42;68.10
69731;SHT31;56996;48.138;11.538;2023-09-30T04:44:55;17.42;68.08
69731;SHT31;56996;48.138;11.538;2023-09-30T04:47:22;17.40;68.01
69731;SHT31;56996;48.138;11.538;2023-09-30T04:49:50;17.37;68.00
69731;SHT31;56996;48.138;11.538;2023-09-30T04:52:17;17.36;68.00
69731;SHT31;56996;48.138;11.538;2023-09-30T04:54:44;17.34;68.12
69731;SHT31;56996;48.138;11.538;2023-09-30T04:57:12;17.28;68.27
69731;SHT31;56996;48.138;11.538;2023-09-30T04:59:39;17.24;68.24
69731;SHT31;56996;48.138;11.538;2023-09-30T05:02:06;17.24;68.29
69731;SHT31;56996;48.138;11.538;2023-09-30T05:04:32;17.22;68.36
69731;SHT31;56996;48.138;11.538;2023-09-30T05:06:59;17.16;68.51
69731;SHT31;56996;48.138;11.538;2023-09-30T05:09:26;17.13;68.61
69731;SHT31;56996;48.138;11.538;2023-09-30T05:11:55;17.10;68.72
69731;SHT31;56996;48.138;11.538;2023-09-30T05:14:21;17.10;68.73
69731;SHT31;56996;48.138;11.538;2023-09-30T05:16:48;17.10;68.75
69731;SHT31;56996;48.138;11.538;2023-09-30T05:19:15;17.10;68.86
69731;SHT31;56996;48.138;11.538;2023-09-30T05:21:42;17.12;68.81
69731;SHT31;56996;48.138;11.538;2023-09-30T05:24:11;17.14;68.85
69731;SHT31;56996;48.138;11.538;2023-09-30T05:26:38;17.16;68.79
69731;SHT31;56996;48.138;11.538;2023-09-30T05:29:05;17.19;68.79
69731;SHT31;56996;48.138;11.538;2023-09-30T05:31:32;17.23;68.71
69731;SHT31;56996;48.138;11.538;2023-09-30T05:33:59;17.26;68.60
69731;SHT31;56996;48.138;11.538;2023-09-30T05:36:27;17.29;68.57
69731;SHT31;56996;48.138;11.538;2023-09-30T05:38:54;17.28;68.59
69731;SHT31;56996;48.138;11.538;2023-09-30T05:41:21;17.30;68.54
69731;SHT31;56996;48.138;11.538;2023-09-30T05:43:48;17.31;68.54
69731;SHT31;56996;48.138;11.538;2023-09-30T05:46:15;17.33;68.58
69731;SHT31;56996;48.138;11.538;2023-09-30T05:48:42;17.33;68.53
69731;SHT31;56996;48.138;11.538;2023-09-30T05:51:09;17.36;68.52
69731;SHT31;56996;48.138;11.538;2023-09-30T05:53:40;17.39;68.50
69731;SHT31;56996;48.138;11.538;2023-09-30T05:56:08;17.41;68.44
69731;SHT31;56996;48.138;11.538;2023-09-30T05:58:40;17.42;68.46
69731;SHT31;56996;48.138;11.538;2023-09-30T06:01:08;17.45;68.41
69731;SHT31;56996;48.138;11.538;2023-09-30T06:03:37;17.49;68.40
69731;SHT31;56996;48.138;11.538;2023-09-30T06:06:10;17.50;68.36
69731;SHT31;56996;48.138;11.538;2023-09-30T06:08:42;17.55;68.32
69731;SHT31;56996;48.138;11.538;2023-09-30T06:11:21;17.58;68.25
69731;SHT31;56996;48.138;11.538;2023-09-30T06:13:51;17.61;68.14
69731;SHT31;56996;48.138;11.538;2023-09-30T06:16:19;17.64;68.03
69731;SHT31;56996;48.138;11.538;2023-09-30T06:18:47;17.63;67.99
69731;SHT31;56996;48.138;11.538;2023-09-30T06:21:15;17.61;68.03
69731;SHT31;56996;48.138;11.538;2023-09-30T06:23:44;17.61;67.89
69731;SHT31;56996;48.138;11.538;2023-09-30T06:26:11;17.61;67.72
69731;SHT31;56996;48.138;11.538;2023-09-30T06:28:37;17.59;67.64
69731;SHT31;56996;48.138;11.538;2023-09-30T06:31:07;17.60;67.52
69731;SHT31;56996;48.138;11.538;2023-09-30T06:33:38;17.58;67.46
69731;SHT31;56996;48.138;11.538;2023-09-30T06:36:09;17.57;67.44
69731;SHT31;56996;48.138;11.538;2023-09-30T06:38:37;17.57;67.47
69731;SHT31;56996;48.138;11.538;2023-09-30T06:41:04;17.59;67.47
69731;SHT31;56996;48.138;11.538;2023-09-30T06:43:32;17.61;67.39
69731;SHT31;56996;48.138;11.538;2023-09-30T06:45:59;17.67;67.28
69731;SHT31;56996;48.138;11.538;2023-09-30T06:48:27;17.67;67.21
69731;SHT31;56996;48.138;11.538;2023-09-30T06:50:54;17.73;67.18
69731;SHT31;56996;48.138;11.538;2023-09-30T06:53:21;17.88;66.93
69731;SHT31;56996;48.138;11.538;2023-09-30T06:55:48;18.00;66.61
69731;SHT31;56996;48.138;11.538;2023-09-30T06:58:14;18.18;66.15
69731;SHT31;56996;48.138;11.538;2023-09-30T07:00:50;18.33;65.72
69731;SHT31;56996;48.138;11.538;2023-09-30T07:03:20;18.44;65.47
69731;SHT31;56996;48.138;11.538;2023-09-30T07:05:53;18.52;65.29
69731;SHT31;56996;48.138;11.538;2023-09-30T07:08:22;18.53;65.08
69731;SHT31;56996;48.138;11.538;2023-09-30T07:10:49;18.56;64.97
69731;SHT31;56996;48.138;11.538;2023-09-30T07:13:16;18.61;64.78
69731;SHT31;56996;48.138;11.538;2023-09-30T07:15:44;18.61;64.71
69731;SHT31;56996;48.138;11.538;2023-09-30T07:18:11;18.56;64.56
69731;SHT31;56996;48.138;11.538;2023-09-30T07:20:38;18.38;64.87
69731;SHT31;56996;48.138;11.538;2023-09-30T07:23:05;18.29;65.09
69731;SHT31;56996;48.138;11.538;2023-09-30T07:25:44;18.25;65.18
69731;SHT31;56996;48.138;11.538;2023-09-30T07:28:11;18.18;65.37
69731;SHT31;56996;48.138;11.538;2023-09-30T07:30:39;18.25;65.31
69731;SHT31;56996;48.138;11.538;2023-09-30T07:33:06;18.44;64.96
69731;SHT31;56996;48.138;11.538;2023-09-30T07:35:34;18.50;64.68
69731;SHT31;56996;48.138;11.538;2023-09-30T07:38:01;18.52;64.62
69731;SHT31;56996;48.138;11.538;2023-09-30T07:40:30;18.59;64.49
69731;SHT31;56996;48.138;11.538;2023-09-30T07:42:57;18.68;64.22
69731;SHT31;56996;48.138;11.538;2023-09-30T07:45:24;18.85;63.97
69731;SHT31;56996;48.138;11.538;2023-09-30T07:47:51;19.03;63.63
69731;SHT31;56996;48.138;11.538;2023-09-30T07:50:18;19.21;63.34
69731;SHT31;56996;48.138;11.538;2023-09-30T07:52:45;19.34;63.02
69731;SHT31;56996;48.138;11.538;2023-09-30T07:55:13;19.57;62.47
69731;SHT31;56996;48.138;11.538;2023-09-30T07:57:40;19.76;62.01
69731;SHT31;56996;48.138;11.538;2023-09-30T08:00:09;19.81;61.28
69731;SHT31;56996;48.138;11.538;2023-09-30T08:02:41;19.72;61.11
69731;SHT31;56996;48.138;11.538;2023-09-30T08:05:09;19.57;61.59
69731;SHT31;56996;48.138;11.538;2023-09-30T08:07:36;19.52;61.73
69731;SHT31;56996;48.138;11.538;2023-09-30T08:10:03;19.57;61.77
69731;SHT31;56996;48.138;11.538;2023-09-30T08:12:33;19.69;61.54
69731;SHT31;56996;48.138;11.538;2023-09-30T08:15:00;19.83;61.10
69731;SHT31;56996;48.138;11.538;2023-09-30T08:17:29;19.96;60.34
69731;SHT31;56996;48.138;11.538;2023-09-30T08:19:56;19.84;60.52
69731;SHT31;56996;48.138;11.538;2023-09-30T08:22:23;19.74;60.66
69731;SHT31;56996;48.138;11.538;2023-09-30T08:24:54;19.68;60.95
69731;SHT31;56996;48.138;11.538;2023-09-30T08:27:21;19.68;60.91
69731;SHT31;56996;48.138;11.538;2023-09-30T08:29:50;19.65;60.73
69731;SHT31;56996;48.138;11.538;2023-09-30T08:32:17;19.80;60.68
69731;SHT31;56996;48.138;11.538;2023-09-30T08:34:43;19.95;60.22
69731;SHT31;56996;48.138;11.538;2023-09-30T08:37:10;20.15;60.07
69731;SHT31;56996;48.138;11.538;2023-09-30T08:39:39;20.60;59.37
69731;SHT31;56996;48.138;11.538;2023-09-30T08:42:10;21.04;58.46
69731;SHT31;56996;48.138;11.538;2023-09-30T08:44:40;21.21;57.19
69731;SHT31;56996;48.138;11.538;2023-09-30T08:47:07;21.05;57.50
69731;SHT31;56996;48.138;11.538;2023-09-30T08:49:37;21.09;57.46
69731;SHT31;56996;48.138;11.538;2023-09-30T08:52:09;21.31;56.56
69731;SHT31;56996;48.138;11.538;2023-09-30T08:54:37;21.58;55.78
69731;SHT31;56996;48.138;11.538;2023-09-30T08:57:04;21.84;55.36
69731;SHT31;56996;48.138;11.538;2023-09-30T08:59:31;21.66;54.53
69731;SHT31;56996;48.138;11.538;2023-09-30T09:02:02;21.49;55.35
69731;SHT31;56996;48.138;11.538;2023-09-30T09:04:35;21.97;54.72
69731;SHT31;56996;48.138;11.538;2023-09-30T09:07:05;22.66;53.43
69731;SHT31;56996;48.138;11.538;2023-09-30T09:09:32;22.73;53.02
69731;SHT31;56996;48.138;11.538;2023-09-30T09:11:59;23.22;52.57
69731;SHT31;56996;48.138;11.538;2023-09-30T09:14:38;24.22;50.88
69731;SHT31;56996;48.138;11.538;2023-09-30T09:17:07;25.23;49.07
69731;SHT31;56996;48.138;11.538;2023-09-30T09:19:36;25.87;46.21
69731;SHT31;56996;48.138;11.538;2023-09-30T09:22:03;25.51;47.05
69731;SHT31;56996;48.138;11.538;2023-09-30T09:24:34;25.48;47.11
69731;SHT31;56996;48.138;11.538;2023-09-30T09:29:39;25.63;46.35
69731;SHT31;56996;48.138;11.538;2023-09-30T09:32:10;25.36;45.72
69731;SHT31;56996;48.138;11.538;2023-09-30T09:34:42;24.85;46.72
69731;SHT31;56996;48.138;11.538;2023-09-30T09:37:17;24.37;46.32
69731;SHT31;56996;48.138;11.538;2023-09-30T09:39:52;23.78;47.69
69731;SHT31;56996;48.138;11.538;2023-09-30T09:42:24;23.39;48.15
69731;SHT31;56996;48.138;11.538;2023-09-30T09:44:55;23.19;48.73
69731;SHT31;56996;48.138;11.538;2023-09-30T09:47:29;23.23;48.73
69731;SHT31;56996;48.138;11.538;2023-09-30T09:49:59;23.27;48.64
69731;SHT31;56996;48.138;11.538;2023-09-30T09:52:35;23.21;48.58
69731;SHT31;56996;48.138;11.538;2023-09-30T09:55:02;23.80;47.81
69731;SHT31;56996;48.138;11.538;2023-09-30T09:57:31;24.31;46.54
69731;SHT31;56996;48.138;11.538;2023-09-30T09:59:58;24.26;47.14
69731;SHT31;56996;48.138;11.538;2023-09-30T10:02:26;24.95;46.23
69731;SHT31;56996;48.138;11.538;2023-09-30T10:04:55;25.24;45.04
69731;SHT31;56996;48.138;11.538;2023-09-30T10:07:30;25.23;44.88
69731;SHT31;56996;48.138;11.538;2023-09-30T10:10:04;25.30;44.96
69731;SHT31;56996;48.138;11.538;2023-09-30T10:12:39;25.56;44.57
69731;SHT31;56996;48.138;11.538;2023-09-30T10:17:58;25.15;44.25
69731;SHT31;56996;48.138;11.538;2023-09-30T10:20:41;25.10;44.15
69731;SHT31;56996;48.138;11.538;2023-09-30T10:26:00;24.64;44.80
69731;SHT31;56996;48.138;11.538;2023-09-30T10:28:45;24.57;44.70
69731;SHT31;56996;48.138;11.538;2023-09-30T10:31:16;24.34;45.06
69731;SHT31;56996;48.138;11.538;2023-09-30T10:36:31;24.02;44.81
69731;SHT31;56996;48.138;11.538;2023-09-30T10:39:00;23.92;44.36
69731;SHT31;56996;48.138;11.538;2023-09-30T10:46:55;23.73;45.25
69731;SHT31;56996;48.138;11.538;2023-09-30T10:51:54;24.18;43.74
69731;SHT31;56996;48.138;11.538;2023-09-30T10:56:52;23.83;43.63
69731;SHT31;56996;48.138;11.538;2023-09-30T10:59:19;23.55;43.96
69731;SHT31;56996;48.138;11.538;2023-09-30T11:01:51;23.32;44.55
69731;SHT31;56996;48.138;11.538;2023-09-30T11:04:19;23.17;44.99
69731;SHT31;56996;48.138;11.538;2023-09-30T11:06:48;23.02;45.64
69731;SHT31;56996;48.138;11.538;2023-09-30T11:09:21;23.03;45.63
69731;SHT31;56996;48.138;11.538;2023-09-30T11:11:50;22.96;46.04
69731;SHT31;56996;48.138;11.538;2023-09-30T11:14:29;22.88;46.24
69731;SHT31;56996;48.138;11.538;2023-09-30T11:16:58;22.89;46.57
69731;SHT31;56996;48.138;11.538;2023-09-30T11:19:34;23.12;45.98
69731;SHT31;56996;48.138;11.538;2023-09-30T11:22:16;23.27;45.13
69731;SHT31;56996;48.138;11.538;2023-09-30T11:24:43;23.24;44.52
69731;SHT31;56996;48.138;11.538;2023-09-30T11:27:12;23.06;44.01
69731;SHT31;56996;48.138;11.538;2023-09-30T11:29:49;22.91;44.20
69731;SHT31;56996;48.138;11.538;2023-09-30T11:32:23;22.83;44.85
69731;SHT31;56996;48.138;11.538;2023-09-30T11:34:55;22.89;45.08
69731;SHT31;56996;48.138;11.538;2023-09-30T11:37:23;23.06;45.06
69731;SHT31;56996;48.138;11.538;2023-09-30T11:39:50;23.20;45.07
69731;SHT31;56996;48.138;11.538;2023-09-30T11:42:17;23.35;44.91
69731;SHT31;56996;48.138;11.538;2023-09-30T11:44:46;23.47;43.76
69731;SHT31;56996;48.138;11.538;2023-09-30T11:47:15;23.38;43.12
69731;SHT31;56996;48.138;11.538;2023-09-30T11:49:43;23.35;42.94
69731;SHT31;56996;48.138;11.538;2023-09-30T11:52:16;23.35;43.29
69731;SHT31;56996;48.138;11.538;2023-09-30T11:54:43;23.45;42.23
69731;SHT31;56996;48.138;11.538;2023-09-30T11:57:12;23.59;42.20
69731;SHT31;56996;48.138;11.538;2023-09-30T11:59:45;23.67;42.45
69731;SHT31;56996;48.138;11.538;2023-09-30T12:02:15;23.60;42.63
69731;SHT31;56996;48.138;11.538;2023-09-30T12:04:44;23.67;42.58
69731;SHT31;56996;48.138;11.538;2023-09-30T12:07:14;23.76;42.65
69731;SHT31;56996;48.138;11.538;2023-09-30T12:09:41;23.79;42.35
69731;SHT31;56996;48.138;11.538;2023-09-30T12:12:09;23.79;42.39
69731;SHT31;56996;48.138;11.538;2023-09-30T12:14:37;23.78;42.38
69731;SHT31;56996;48.138;11.538;2023-09-30T12:17:04;23.78;42.42
69731;SHT31;56996;48.138;11.538;2023-09-30T12:19:31;23.78;41.21
69731;SHT31;56996;48.138;11.538;2023-09-30T12:21:58;23.63;40.71
69731;SHT31;56996;48.138;11.538;2023-09-30T12:24:25;23.63;40.54
69731;SHT31;56996;48.138;11.538;2023-09-30T12:26:53;23.51;40.70
69731;SHT31;56996;48.138;11.538;2023-09-30T12:29:21;23.56;40.57
69731;SHT31;56996;48.138;11.538;2023-09-30T12:31:53;23.65;40.35
69731;SHT31;56996;48.138;11.538;2023-09-30T12:34:21;23.68;40.27
69731;SHT31;56996;48.138;11.538;2023-09-30T12:36:54;23.66;39.74
69731;SHT31;56996;48.138;11.538;2023-09-30T12:39:23;23.60;40.30
69731;SHT31;56996;48.138;11.538;2023-09-30T12:41:53;23.70;40.58
69731;SHT31;56996;48.138;11.538;2023-09-30T12:44:19;23.76;40.59
69731;SHT31;56996;48.138;11.538;2023-09-30T12:46:46;23.71;40.69
69731;SHT31;56996;48.138;11.538;2023-09-30T12:49:14;23.65;41.27
69731;SHT31;56996;48.138;11.538;2023-09-30T12:51:41;23.69;41.52
69731;SHT31;56996;48.138;11.538;2023-09-30T12:54:09;23.73;41.55
69731;SHT31;56996;48.138;11.538;2023-09-30T12:56:37;23.66;41.16
69731;SHT31;56996;48.138;11.538;2023-09-30T12:59:04;23.38;40.65
69731;SHT31;56996;48.138;11.538;2023-09-30T13:01:31;23.06;41.37
69731;SHT31;56996;48.138;11.538;2023-09-30T13:04:01;22.89;41.75
69731;SHT31;56996;48.138;11.538;2023-09-30T13:06:29;22.85;42.07
69731;SHT31;56996;48.138;11.538;2023-09-30T13:08:59;22.76;42.40
69731;SHT31;56996;48.138;11.538;2023-09-30T13:11:27;22.70;42.98
69731;SHT31;56996;48.138;11.538;2023-09-30T13:13:54;22.75;43.19
69731;SHT31;56996;48.138;11.538;2023-09-30T13:16:21;22.82;43.12
69731;SHT31;56996;48.138;11.538;2023-09-30T13:18:49;22.91;42.97
69731;SHT31;56996;48.138;11.538;2023-09-30T13:21:18;22.90;43.03
69731;SHT31;56996;48.138;11.538;2023-09-30T13:23:46;22.86;43.23
69731;SHT31;56996;48.138;11.538;2023-09-30T13:26:13;22.77;43.58
69731;SHT31;56996;48.138;11.538;2023-09-30T13:28:39;22.78;43.93
69731;SHT31;56996;48.138;11.538;2023-09-30T13:31:06;22.71;43.98
69731;SHT31;56996;48.138;11.538;2023-09-30T13:33:33;22.55;44.37
69731;SHT31;56996;48.138;11.538;2023-09-30T13:36:00;22.48;44.46
69731;SHT31;56996;48.138;11.538;2023-09-30T13:38:28;22.48;44.63
69731;SHT31;56996;48.138;11.538;2023-09-30T13:40:55;22.48;44.17
69731;SHT31;56996;48.138;11.538;2023-09-30T13:43:22;22.38;44.19
69731;SHT31;56996;48.138;11.538;2023-09-30T13:45:49;22.33;44.25
69731;SHT31;56996;48.138;11.538;2023-09-30T13:48:17;22.28;44.38
69731;SHT31;56996;48.138;11.538;2023-09-30T13:50:44;22.18;44.97
69731;SHT31;56996;48.138;11.538;2023-09-30T13:53:11;22.11;45.33
69731;SHT31;56996;48.138;11.538;2023-09-30T13:55:38;22.12;45.32
69731;SHT31;56996;48.138;11.538;2023-09-30T13:58:06;22.13;45.51
69731;SHT31;56996;48.138;11.538;2023-09-30T14:00:33;22.11;45.46
69731;SHT31;56996;48.138;11.538;2023-09-30T14:02:59;22.08;45.50
69731;SHT31;56996;48.138;11.538;2023-09-30T14:05:27;22.11;45.44
69731;SHT31;56996;48.138;11.538;2023-09-30T14:07:54;22.21;45.42
69731;SHT31;56996;48.138;11.538;2023-09-30T14:10:20;22.10;45.57
69731;SHT31;56996;48.138;11.538;2023-09-30T14:12:47;22.00;45.96
69731;SHT31;56996;48.138;11.538;2023-09-30T14:15:17;21.99;45.93
69731;SHT31;56996;48.138;11.538;2023-09-30T14:17:44;22.05;45.70
69731;SHT31;56996;48.138;11.538;2023-09-30T14:20:11;22.13;45.57
69731;SHT31;56996;48.138;11.538;2023-09-30T14:22:38;22.13;45.34
69731;SHT31;56996;48.138;11.538;2023-09-30T14:25:05;22.07;45.59
69731;SHT31;56996;48.138;11.538;2023-09-30T14:27:34;22.22;45.48
69731;SHT31;56996;48.138;11.538;2023-09-30T14:30:00;22.39;45.41
69731;SHT31;56996;48.138;11.538;2023-09-30T14:32:27;22.44;45.02
69731;SHT31;56996;48.138;11.538;2023-09-30T14:34:54;22.23;45.18
69731;SHT31;56996;48.138;11.538;2023-09-30T14:37:21;22.04;45.62
69731;SHT31;56996;48.138;11.538;2023-09-30T14:39:48;21.97;45.85
69731;SHT31;56996;48.138;11.538;2023-09-30T14:42:15;21.90;46.03
69731;SHT31;56996;48.138;11.538;2023-09-30T14:44:42;21.92;46.03
69731;SHT31;56996;48.138;11.538;2023-09-30T14:47:09;21.93;45.77
69731;SHT31;56996;48.138;11.538;2023-09-30T14:49:35;21.88;45.72
69731;SHT31;56996;48.138;11.538;2023-09-30T14:52:02;21.83;45.42
69731;SHT31;56996;48.138;11.538;2023-09-30T14:54:31;21.78;45.26
69731;SHT31;56996;48.138;11.538;2023-09-30T14:56:58;21.79;45.24
69731;SHT31;56996;48.138;11.538;2023-09-30T14:59:25;21.85;45.49
69731;SHT31;56996;48.138;11.538;2023-09-30T15:01:52;21.93;45.39
69731;SHT31;56996;48.138;11.538;2023-09-30T15:04:19;21.96;45.25
69731;SHT31;56996;48.138;11.538;2023-09-30T15:06:46;22.01;45.18
69731;SHT31;56996;48.138;11.538;2023-09-30T15:09:13;22.03;45.38
69731;SHT31;56996;48.138;11.538;2023-09-30T15:11:40;22.08;45.16
69731;SHT31;56996;48.138;11.538;2023-09-30T15:14:07;22.08;45.16
69731;SHT31;56996;48.138;11.538;2023-09-30T15:16:34;21.99;45.12
69731;SHT31;56996;48.138;11.538;2023-09-30T15:19:02;21.93;45.36
69731;SHT31;56996;48.138;11.538;2023-09-30T15:21:29;22.00;45.32
69731;SHT31;56996;48.138;11.538;2023-09-30T15:23:56;22.06;45.23
69731;SHT31;56996;48.138;11.538;2023-09-30T15:26:23;21.94;45.23
69731;SHT31;56996;48.138;11.538;2023-09-30T15:28:50;21.76;45.91
69731;SHT31;56996;48.138;11.538;2023-09-30T15:31:18;21.62;46.47
69731;SHT31;56996;48.138;11.538;2023-09-30T15:33:46;21.51;46.67
69731;SHT31;56996;48.138;11.538;2023-09-30T15:36:15;21.43;46.83
69731;SHT31;56996;48.138;11.538;2023-09-30T15:38:46;21.46;46.99
69731;SHT31;56996;48.138;11.538;2023-09-30T15:41:13;21.46;46.88
69731;SHT31;56996;48.138;11.538;2023-09-30T15:43:41;21.45;46.78